Time;durP1;ratioP1;P1;durP2;ratioP2;P2;SDS_P1;SDS_P2;PMS_P1;PMS_P2;Temp;Humidity;BMP_temperature;BMP_pressure;BME280_temperature;BME280_humidity;BME280_pressure;Samples;Min_cycle;Max_cycle;Signal;HPM_P1;HPM_P2
2022/11/16 00:01:25;;;;;;;4.27;3.87;;;13.00;99.90;;;;;;5052414;28;20213;-74
2022/11/16 00:03:52;;;;;;;4.67;4.13;;;12.90;99.90;;;;;;5052486;28;20541;-74
2022/11/16 00:06:19;;;;;;;4.50;4.10;;;12.90;99.90;;;;;;5052286;28;20409;-74
2022/11/16 00:11:32;;;;;;;4.83;4.43;;;12.90;99.90;;;;;;5051771;28;20440;-74
2022/11/16 00:13:57;;;;;;;4.60;3.90;;;12.80;99.90;;;;;;5050446;28;20434;-74
2022/11/16 00:16:23;;;;;;;4.73;4.33;;;12.60;99.90;;;;;;5051355;28;20439;-74
2022/11/16 00:18:58;;;;;;;4.60;3.90;;;12.60;99.90;;;;;;5052423;28;20180;-74
2022/11/16 00:21:25;;;;;;;5.60;5.07;;;12.50;99.90;;;;;;5033381;28;20199;-73
2022/11/16 00:23:51;;;;;;;4.40;4.00;;;12.40;99.90;;;;;;5033151;28;20498;-73
2022/11/16 00:26:16;;;;;;;5.67;5.07;;;12.40;99.90;;;;;;5031560;28;20440;-74
2022/11/16 00:28:42;;;;;;;4.83;4.17;;;12.40;99.90;;;;;;5032967;28;20164;-74
2022/11/16 00:31:09;;;;;;;4.73;4.10;;;12.40;99.90;;;;;;5032556;28;20177;-74
2022/11/16 00:33:35;;;;;;;5.87;4.57;;;12.40;99.90;;;;;;5033016;28;20287;-74
2022/11/16 00:36:02;;;;;;;6.67;4.90;;;12.40;99.90;;;;;;5032550;28;20560;-74
2022/11/16 00:38:28;;;;;;;4.53;4.13;;;12.30;99.90;;;;;;5032918;28;20502;-74
2022/11/16 00:40:53;;;;;;;5.23;4.67;;;12.30;99.90;;;;;;5036218;28;20547;-74
2022/11/16 00:43:19;;;;;;;5.07;4.57;;;12.30;99.90;;;;;;5036151;28;20180;-74
2022/11/16 00:45:44;;;;;;;4.93;4.17;;;12.40;99.90;;;;;;5036813;28;20221;-75
2022/11/16 00:48:11;;;;;;;4.03;3.70;;;12.40;99.90;;;;;;5036312;28;20169;-75
2022/11/16 00:50:37;;;;;;;5.30;3.87;;;12.50;99.90;;;;;;5036442;28;20178;-74
2022/11/16 00:53:03;;;;;;;5.07;4.33;;;12.60;99.90;;;;;;5036620;28;20527;-74
2022/11/16 00:55:29;;;;;;;4.53;4.07;;;12.60;99.90;;;;;;5036120;28;20827;-75
2022/11/16 00:57:55;;;;;;;4.63;4.23;;;12.60;99.90;;;;;;5036037;28;20412;-74
2022/11/16 01:00:20;;;;;;;4.67;4.10;;;12.70;99.90;;;;;;5036065;28;20204;-74
2022/11/16 01:02:46;;;;;;;5.17;4.67;;;12.70;99.90;;;;;;5035535;28;20174;-74
2022/11/16 01:05:12;;;;;;;5.10;4.60;;;12.70;99.90;;;;;;5035894;28;20194;-74
2022/11/16 01:07:39;;;;;;;4.43;3.80;;;12.70;99.90;;;;;;5035842;28;20272;-75
2022/11/16 01:10:07;;;;;;;4.47;4.03;;;12.70;99.90;;;;;;5035871;28;20410;-75
2022/11/16 01:12:33;;;;;;;4.87;3.87;;;12.80;99.90;;;;;;5035899;28;20418;-74
2022/11/16 01:14:59;;;;;;;3.93;3.63;;;12.80;99.90;;;;;;5036254;28;20442;-75
2022/11/16 01:17:24;;;;;;;4.87;4.00;;;12.80;99.90;;;;;;5034568;28;20334;-74
2022/11/16 01:19:51;;;;;;;4.43;3.57;;;12.80;99.90;;;;;;5035786;28;20276;-75
2022/11/16 01:22:17;;;;;;;4.40;4.00;;;12.70;99.90;;;;;;5035737;28;20224;-74
2022/11/16 01:24:45;;;;;;;4.90;3.87;;;12.50;99.90;;;;;;5035813;28;20496;-74
2022/11/16 01:27:11;;;;;;;4.87;4.47;;;12.30;99.90;;;;;;5035893;28;20547;-74
2022/11/16 01:29:36;;;;;;;4.30;3.90;;;12.30;99.90;;;;;;5035583;28;20493;-75
2022/11/16 01:32:02;;;;;;;4.13;3.83;;;12.30;99.90;;;;;;5035006;28;20183;-76
2022/11/16 01:34:27;;;;;;;4.40;4.00;;;12.40;99.90;;;;;;5035276;28;20197;-75
2022/11/16 01:36:53;;;;;;;4.80;3.90;;;12.20;99.90;;;;;;5035594;28;20263;-74
2022/11/16 01:39:19;;;;;;;7.10;4.40;;;12.10;99.90;;;;;;5035490;28;20194;-73
2022/11/16 01:41:44;;;;;;;5.60;4.90;;;12.20;99.90;;;;;;5035232;28;20247;-74
2022/11/16 01:44:31;;;;;;;5.03;4.40;;;12.20;99.90;;;;;;5035055;28;20184;-74
2022/11/16 01:47:03;;;;;;;6.20;5.07;;;12.10;99.90;;;;;;5034538;28;20179;-75
2022/11/16 01:49:32;;;;;;;4.57;4.13;;;12.20;99.90;;;;;;5035529;28;20880;-74
2022/11/16 01:52:06;;;;;;;5.63;4.77;;;12.10;99.90;;;;;;5035027;28;20772;-76
2022/11/16 01:54:38;;;;;;;4.80;4.40;;;12.00;99.90;;;;;;5034939;28;20457;-74
2022/11/16 01:57:07;;;;;;;6.13;4.90;;;11.90;99.90;;;;;;5034913;28;20396;-73
2022/11/16 01:59:33;;;;;;;4.60;4.03;;;11.90;99.90;;;;;;5034646;28;20455;-74
2022/11/16 02:02:00;;;;;;;6.67;4.87;;;11.90;99.90;;;;;;5034678;28;20437;-73
2022/11/16 02:04:26;;;;;;;6.30;4.63;;;11.80;99.90;;;;;;5034116;28;20949;-74
2022/11/16 02:09:52;;;;;;;6.27;5.67;;;11.80;99.90;;;;;;5034588;28;20479;-74
2022/11/16 02:10:39;;;;;;;9.63;4.63;;;11.80;99.90;;;;;;5009589;28;20178;-75
2022/11/16 02:13:26;;;;;;;6.37;5.30;;;11.60;99.90;;;;;;5037598;28;20749;-74
2022/11/16 02:16:11;;;;;;;4.97;4.43;;;11.50;99.90;;;;;;5034148;28;20445;-74
2022/11/16 02:18:51;;;;;;;4.63;4.13;;;11.60;99.90;;;;;;5035802;28;20863;-74
2022/11/16 02:21:23;;;;;;;4.53;4.13;;;11.60;99.90;;;;;;5034866;28;20502;-74
2022/11/16 02:24:04;;;;;;;5.53;4.37;;;11.70;99.90;;;;;;5034167;28;20916;-74
2022/11/16 02:26:51;;;;;;;5.73;3.80;;;11.80;99.90;;;;;;5034321;28;20388;-75
2022/11/16 02:29:33;;;;;;;4.13;3.73;;;11.90;99.90;;;;;;5034272;28;20835;-74
2022/11/16 02:32:01;;;;;;;3.40;3.10;;;11.90;99.90;;;;;;5034092;28;20789;-74
2022/11/16 02:34:32;;;;;;;7.33;4.33;;;12.00;99.90;;;;;;5031523;28;20451;-75
2022/11/16 02:37:00;;;;;;;5.47;4.07;;;12.00;99.90;;;;;;5033907;28;20506;-74
2022/11/16 02:39:28;;;;;;;3.13;2.93;;;12.00;99.90;;;;;;5034045;28;20421;-75
2022/11/16 02:41:55;;;;;;;5.00;3.90;;;12.20;99.90;;;;;;5033625;28;20816;-75
2022/11/16 02:44:28;;;;;;;4.60;4.20;;;12.30;99.90;;;;;;5033518;28;20463;-75
2022/11/16 02:46:57;;;;;;;5.33;3.83;;;12.20;99.90;;;;;;5033621;28;20408;-75
2022/11/16 02:49:25;;;;;;;4.50;3.93;;;12.30;99.90;;;;;;5034333;28;20494;-75
2022/11/16 02:51:53;;;;;;;3.63;3.33;;;12.30;99.90;;;;;;5033998;28;20762;-75
2022/11/16 02:54:20;;;;;;;3.97;3.43;;;12.30;99.90;;;;;;5033222;28;20466;-74
2022/11/16 02:57:01;;;;;;;4.20;3.40;;;12.20;99.90;;;;;;5032516;28;20440;-75
2022/11/16 02:59:34;;;;;;;4.30;3.90;;;12.20;99.90;;;;;;5033899;28;20412;-74
2022/11/16 03:02:34;;;;;;;4.57;4.17;;;12.10;99.90;;;;;;5032534;28;20920;-75
2022/11/16 03:05:08;;;;;;;4.63;4.23;;;12.10;99.90;;;;;;5033572;28;20421;-75
2022/11/16 03:07:42;;;;;;;7.80;3.77;;;12.10;99.90;;;;;;5033536;28;20898;-75
2022/11/16 03:10:09;;;;;;;3.60;3.30;;;12.10;99.90;;;;;;5033552;28;20390;-74
2022/11/16 03:12:36;;;;;;;4.47;3.60;;;12.10;99.90;;;;;;5032158;28;20425;-75
2022/11/16 03:15:08;;;;;;;4.23;3.83;;;12.10;99.90;;;;;;5032186;28;20524;-75
2022/11/16 03:17:44;;;;;;;4.77;4.07;;;12.30;99.90;;;;;;5032070;28;20427;-74
2022/11/16 03:20:24;;;;;;;3.77;2.83;;;12.40;99.90;;;;;;5033675;28;20973;-75
2022/11/16 03:23:00;;;;;;;4.50;4.20;;;12.40;99.90;;;;;;5033570;28;20465;-74
2022/11/16 03:25:30;;;;;;;3.50;3.20;;;12.30;99.90;;;;;;5033476;28;20912;-75
2022/11/16 03:28:19;;;;;;;3.90;3.50;;;12.40;99.90;;;;;;5033420;28;20457;-75
2022/11/16 03:31:10;;;;;;;4.67;4.13;;;12.50;99.90;;;;;;5032969;28;20391;-74
2022/11/16 03:33:49;;;;;;;5.40;3.80;;;12.50;99.90;;;;;;5033443;28;20435;-74
2022/11/16 03:36:18;;;;;;;5.93;4.07;;;12.40;99.90;;;;;;5031854;28;20437;-74
2022/11/16 03:38:45;;;;;;;4.03;3.63;;;12.40;99.90;;;;;;5033252;28;20426;-75
2022/11/16 03:41:13;;;;;;;11.83;4.30;;;12.30;99.90;;;;;;5033223;28;20860;-74
2022/11/16 03:43:41;;;;;;;4.03;3.40;;;12.20;99.90;;;;;;5032884;28;20973;-75
2022/11/16 03:46:07;;;;;;;3.37;3.07;;;12.20;99.90;;;;;;5032666;28;20456;-75
2022/11/16 03:48:38;;;;;;;5.43;4.40;;;12.10;99.90;;;;;;5032660;28;20433;-75
2022/11/16 03:51:04;;;;;;;5.07;4.57;;;12.10;99.90;;;;;;5013473;28;20170;-75
2022/11/16 03:53:30;;;;;;;6.90;4.50;;;12.10;99.90;;;;;;5011744;28;20434;-74
2022/11/16 03:55:56;;;;;;;5.90;4.83;;;12.10;99.90;;;;;;5013179;28;20406;-75
2022/11/16 03:58:21;;;;;;;5.70;5.10;;;12.10;99.90;;;;;;5013088;28;20262;-74
2022/11/16 04:00:47;;;;;;;5.30;4.80;;;12.10;99.90;;;;;;5013159;28;20200;-74
2022/11/16 04:03:12;;;;;;;5.57;5.00;;;12.10;99.90;;;;;;5012837;28;20165;-74
2022/11/16 04:25:23;;;;;;;4.70;4.30;;;12.50;99.90;;;;;;5037149;28;20423;-74
2022/11/16 04:38:45;;;;;;;4.40;4.00;;;12.70;99.90;;;;;;5036833;28;20796;-74
2022/11/16 04:42:13;;;;;;;6.50;4.03;;;12.70;99.90;;;;;;5036232;28;20493;-74
2022/11/16 04:43:57;;;;;;;4.03;3.50;;;12.60;99.90;;;;;;5036022;28;20202;-74
2022/11/16 04:49:06;;;;;;;5.40;4.40;;;12.60;99.90;;;;;;5036242;28;20551;-74
2022/11/16 04:51:32;;;;;;;5.70;4.97;;;12.60;99.90;;;;;;5036378;28;20425;-74
2022/11/16 04:53:57;;;;;;;6.00;4.90;;;12.50;99.90;;;;;;5035106;28;20215;-74
2022/11/16 04:56:23;;;;;;;5.40;4.90;;;12.60;99.90;;;;;;5036067;28;20173;-74
2022/11/16 04:58:48;;;;;;;5.30;4.90;;;12.70;99.90;;;;;;5035980;28;20177;-74
2022/11/16 05:01:14;;;;;;;6.17;5.67;;;12.70;99.90;;;;;;5035183;28;20228;-74
2022/11/16 05:03:40;;;;;;;6.77;6.13;;;12.60;99.90;;;;;;5035450;28;20195;-74
2022/11/16 05:06:06;;;;;;;5.60;5.10;;;12.70;99.90;;;;;;5035849;28;20171;-74
2022/11/16 05:08:31;;;;;;;4.03;3.73;;;12.70;99.90;;;;;;5035657;28;20180;-74
2022/11/16 05:10:57;;;;;;;5.40;4.37;;;12.70;99.90;;;;;;5035787;28;20174;-74
2022/11/16 05:13:22;;;;;;;5.93;3.87;;;12.70;99.90;;;;;;5035702;28;20197;-74
2022/11/16 05:15:48;;;;;;;5.70;5.10;;;12.80;99.90;;;;;;5036990;28;20181;-74
2022/11/16 05:18:13;;;;;;;4.87;4.37;;;12.80;99.90;;;;;;5034621;28;20188;-74
2022/11/16 05:26:07;;;;;;;5.67;5.07;;;12.80;99.90;;;;;;5035064;28;20378;-74
2022/11/16 05:28:32;;;;;;;6.37;5.70;;;12.70;99.90;;;;;;5035832;28;20412;-75
2022/11/16 05:30:58;;;;;;;4.70;4.30;;;12.80;99.90;;;;;;5035425;28;20663;-74
2022/11/16 05:33:23;;;;;;;3.33;3.03;;;12.80;99.90;;;;;;5034854;28;20181;-74
2022/11/16 05:35:50;;;;;;;5.50;3.63;;;12.80;99.90;;;;;;5035238;28;20629;-75
2022/11/16 05:38:17;;;;;;;3.50;3.20;;;12.70;99.90;;;;;;5035176;28;20207;-75
2022/11/16 05:40:42;;;;;;;3.37;3.07;;;12.70;99.90;;;;;;5035042;28;20835;-74
2022/11/16 05:43:08;;;;;;;3.20;2.90;;;12.70;99.90;;;;;;5035215;28;20398;-74
2022/11/16 05:45:33;;;;;;;3.13;2.87;;;12.70;99.90;;;;;;5035343;28;20646;-75
2022/11/16 05:47:59;;;;;;;2.73;2.53;;;12.70;99.90;;;;;;5027729;28;20178;-74
2022/11/16 05:50:24;;;;;;;3.93;2.93;;;12.70;99.90;;;;;;5026276;28;20744;-74
2022/11/16 05:52:50;;;;;;;2.60;2.40;;;12.70;99.90;;;;;;5026905;28;20697;-74
2022/11/16 05:55:15;;;;;;;3.00;2.70;;;12.70;99.90;;;;;;5034791;28;20206;-74
2022/11/16 05:57:41;;;;;;;2.87;2.50;;;12.70;99.90;;;;;;5034838;28;20189;-74
2022/11/16 06:00:08;;;;;;;3.87;3.57;;;12.70;99.90;;;;;;5035122;28;20200;-74
2022/11/16 06:02:33;;;;;;;3.90;3.60;;;12.70;99.90;;;;;;5034432;28;20541;-74
2022/11/16 06:04:59;;;;;;;5.40;4.37;;;12.60;99.90;;;;;;5034803;28;20428;-74
2022/11/16 06:07:24;;;;;;;4.80;4.00;;;12.70;99.90;;;;;;5034654;28;20164;-74
2022/11/16 06:09:50;;;;;;;3.20;2.90;;;12.60;99.90;;;;;;5034596;28;20223;-74
2022/11/16 06:12:15;;;;;;;3.73;3.43;;;12.60;99.90;;;;;;5034909;28;20172;-74
2022/11/16 06:14:41;;;;;;;4.73;4.17;;;12.60;99.90;;;;;;5039855;28;20182;-74
2022/11/16 06:17:07;;;;;;;4.67;3.60;;;12.50;99.90;;;;;;5045917;28;20343;-74
2022/11/16 06:19:33;;;;;;;4.23;3.83;;;12.60;99.90;;;;;;5034445;28;20709;-75
2022/11/16 06:21:59;;;;;;;5.03;3.10;;;12.60;99.90;;;;;;5034715;28;20905;-74
2022/11/16 06:24:25;;;;;;;3.83;3.43;;;12.60;99.90;;;;;;5034639;28;20412;-74
2022/11/16 06:26:50;;;;;;;5.30;3.20;;;12.50;99.90;;;;;;5035076;28;20166;-74
2022/11/16 06:29:16;;;;;;;5.00;4.50;;;12.60;99.90;;;;;;5035645;28;20156;-76
2022/11/16 06:31:42;;;;;;;3.70;3.40;;;12.50;99.90;;;;;;5034565;28;20169;-76
2022/11/16 06:34:07;;;;;;;3.03;2.73;;;12.50;99.90;;;;;;5036186;28;20193;-77
2022/11/16 06:36:33;;;;;;;4.03;3.00;;;12.60;99.90;;;;;;5033122;28;20182;-75
2022/11/16 06:39:02;;;;;;;4.30;2.77;;;12.60;99.90;;;;;;5035119;28;20204;-74
2022/11/16 06:41:28;;;;;;;3.17;2.90;;;12.70;99.90;;;;;;5035309;28;20231;-75
2022/11/16 06:43:54;;;;;;;4.13;3.50;;;12.70;99.90;;;;;;5034697;28;20628;-75
2022/11/16 06:46:20;;;;;;;3.43;3.13;;;12.80;99.90;;;;;;5034357;28;20522;-75
2022/11/16 06:48:45;;;;;;;5.53;2.97;;;12.80;99.90;;;;;;5034101;28;20235;-75
2022/11/16 06:51:11;;;;;;;2.43;2.23;;;12.80;99.90;;;;;;5034073;28;20315;-75
2022/11/16 06:53:40;;;;;;;2.70;2.30;;;12.80;99.90;;;;;;5034410;28;20208;-75
2022/11/16 06:56:06;;;;;;;4.23;2.27;;;12.80;99.90;;;;;;5036148;28;20629;-74
2022/11/16 06:58:33;;;;;;;3.30;2.63;;;12.70;99.90;;;;;;5034169;28;20555;-75
2022/11/16 07:01:09;;;;;;;2.53;2.33;;;12.80;99.90;;;;;;5033758;28;20569;-74
2022/11/16 07:03:35;;;;;;;2.40;2.20;;;12.80;99.90;;;;;;5033712;28;20763;-76
2022/11/16 07:06:06;;;;;;;2.40;2.20;;;12.80;99.90;;;;;;5033249;28;20414;-74
2022/11/16 07:08:31;;;;;;;2.50;2.20;;;12.80;99.90;;;;;;5033664;28;20261;-75
2022/11/16 07:11:01;;;;;;;2.87;2.40;;;12.90;99.90;;;;;;5033942;28;20500;-75
2022/11/16 07:13:31;;;;;;;3.60;3.30;;;12.90;99.90;;;;;;5034115;28;20654;-75
2022/11/16 07:16:04;;;;;;;3.70;3.40;;;13.00;99.90;;;;;;5034363;28;20488;-74
2022/11/16 07:18:34;;;;;;;3.73;3.33;;;13.00;99.90;;;;;;5031959;28;20448;-74
2022/11/16 07:21:12;;;;;;;3.37;3.00;;;13.10;99.90;;;;;;5033420;28;20438;-75
2022/11/16 07:23:38;;;;;;;11.77;10.20;;;13.10;99.90;;;;;;5033376;28;20481;-75
2022/11/16 07:26:05;;;;;;;13.10;11.80;;;13.10;99.90;;;;;;5033763;28;20818;-75
2022/11/16 07:28:31;;;;;;;5.67;4.63;;;13.20;99.90;;;;;;5033564;28;20940;-75
2022/11/16 07:31:04;;;;;;;7.83;4.50;;;13.10;99.90;;;;;;5033649;28;20421;-75
2022/11/16 07:33:30;;;;;;;4.80;4.30;;;13.10;99.90;;;;;;5032953;28;20189;-76
2022/11/16 07:36:06;;;;;;;3.10;2.90;;;13.00;99.90;;;;;;5032481;28;20435;-76
2022/11/16 07:38:32;;;;;;;3.07;2.73;;;13.00;99.90;;;;;;5033400;28;20178;-76
2022/11/16 07:41:03;;;;;;;6.07;5.03;;;13.10;99.90;;;;;;5033448;28;20898;-76
2022/11/16 07:43:30;;;;;;;2.67;2.43;;;13.10;99.90;;;;;;5033155;28;20530;-75
2022/11/16 07:46:04;;;;;;;2.03;1.73;;;13.20;99.90;;;;;;5033509;28;20423;-75
2022/11/16 07:48:31;;;;;;;2.73;2.10;;;13.30;99.90;;;;;;5032813;28;20461;-75
2022/11/16 07:51:05;;;;;;;2.17;1.90;;;13.20;99.90;;;;;;5032231;28;20927;-75
2022/11/16 07:53:32;;;;;;;2.37;1.60;;;13.40;99.90;;;;;;5030045;28;20444;-75
2022/11/16 07:55:58;;;;;;;2.80;2.00;;;13.60;99.90;;;;;;5032004;28;20768;-75
2022/11/16 07:58:24;;;;;;;2.03;1.30;;;13.50;99.90;;;;;;5033236;28;20913;-74
2022/11/16 08:00:50;;;;;;;2.23;1.87;;;13.40;99.90;;;;;;5033242;28;20456;-75
2022/11/16 08:03:16;;;;;;;2.93;1.80;;;13.40;99.90;;;;;;5031638;28;20420;-75
2022/11/16 08:05:43;;;;;;;4.80;4.17;;;13.30;99.90;;;;;;5036229;28;20177;-75
2022/11/16 08:08:09;;;;;;;5.30;3.30;;;13.50;99.90;;;;;;5033060;28;20412;-74
2022/11/16 08:10:35;;;;;;;2.70;1.93;;;13.70;99.90;;;;;;5034599;28;20414;-75
2022/11/16 08:13:01;;;;;;;2.60;2.33;;;13.80;99.90;;;;;;5032610;28;20420;-75
2022/11/16 08:15:27;;;;;;;2.47;2.00;;;13.90;99.90;;;;;;5032612;28;20433;-75
2022/11/16 08:17:52;;;;;;;6.90;5.33;;;14.00;99.90;;;;;;5032050;28;20182;-74
2022/11/16 08:20:18;;;;;;;2.30;2.10;;;14.10;99.90;;;;;;5032890;28;20236;-74
2022/11/16 08:22:44;;;;;;;1.57;1.27;;;14.30;99.90;;;;;;5033126;28;20170;-74
2022/11/16 08:25:10;;;;;;;2.30;1.47;;;14.10;99.90;;;;;;5033299;28;20675;-74
2022/11/16 08:27:36;;;;;;;1.43;1.17;;;14.10;99.90;;;;;;5032983;28;20183;-74
2022/11/16 08:30:03;;;;;;;1.63;1.20;;;14.20;99.90;;;;;;5033124;28;20903;-75
2022/11/16 08:32:29;;;;;;;1.77;1.23;;;14.40;99.90;;;;;;5032449;28;20175;-74
2022/11/16 08:34:55;;;;;;;1.53;1.17;;;14.30;99.90;;;;;;5032879;28;20455;-75
2022/11/16 08:37:21;;;;;;;1.87;1.37;;;14.20;99.90;;;;;;5031614;28;20174;-74
2022/11/16 08:39:47;;;;;;;1.97;1.43;;;14.20;99.90;;;;;;5031482;28;22146;-75
2022/11/16 08:42:12;;;;;;;1.60;1.20;;;14.10;99.90;;;;;;5032158;28;20175;-75
2022/11/16 08:44:38;;;;;;;3.27;1.50;;;14.20;99.90;;;;;;5032630;28;20959;-75
2022/11/16 08:47:04;;;;;;;1.67;1.40;;;13.90;99.90;;;;;;5032086;28;20185;-75
2022/11/16 08:49:29;;;;;;;2.50;1.80;;;14.00;99.90;;;;;;5032607;28;20176;-75
2022/11/16 08:51:55;;;;;;;1.90;1.20;;;13.90;99.90;;;;;;5032712;28;20176;-75
2022/11/16 08:54:21;;;;;;;2.50;1.20;;;14.10;99.90;;;;;;5049411;23;20226;-71
2022/11/16 08:56:46;;;;;;;2.40;1.43;;;13.90;99.90;;;;;;5013477;28;20631;-70
2022/11/16 08:59:12;;;;;;;2.50;1.20;;;14.10;99.90;;;;;;5025104;28;20171;-70
2022/11/16 09:01:38;;;;;;;1.90;1.40;;;14.20;99.90;;;;;;5035550;28;20190;-71
2022/11/16 09:04:04;;;;;;;2.00;1.40;;;14.20;99.90;;;;;;5035486;28;20186;-70
2022/11/16 09:06:29;;;;;;;2.53;1.00;;;14.30;99.90;;;;;;5035843;28;20251;-71
2022/11/16 09:08:55;;;;;;;2.73;1.10;;;14.30;99.90;;;;;;5036319;28;20250;-71
2022/11/16 09:11:23;;;;;;;2.57;1.20;;;14.40;99.90;;;;;;5035886;28;20716;-71
2022/11/16 09:13:50;;;;;;;2.10;1.43;;;14.40;99.90;;;;;;5035804;28;20779;-70
2022/11/16 09:16:19;;;;;;;4.40;2.30;;;14.50;99.90;;;;;;5035667;28;20490;-71
2022/11/16 09:18:46;;;;;;;2.80;1.87;;;14.50;99.90;;;;;;5017244;28;21008;-71
2022/11/16 09:21:15;;;;;;;1.67;1.40;;;14.60;99.90;;;;;;5016468;28;20442;-72
2022/11/16 09:23:41;;;;;;;5.43;1.40;;;14.50;99.90;;;;;;5015991;28;20412;-69
2022/11/16 09:26:06;;;;;;;2.17;1.63;;;14.50;99.90;;;;;;5015957;28;20897;-72
2022/11/16 09:28:32;;;;;;;4.07;1.40;;;14.60;99.90;;;;;;5016227;28;20639;-72
2022/11/16 09:31:01;;;;;;;2.53;1.37;;;14.60;99.90;;;;;;5016056;28;20171;-71
2022/11/16 09:33:30;;;;;;;2.97;1.60;;;14.60;99.90;;;;;;5014939;28;20424;-71
2022/11/16 09:36:01;;;;;;;2.27;1.23;;;14.70;99.90;;;;;;5029492;28;20463;-71
2022/11/16 09:38:27;;;;;;;3.13;1.30;;;14.70;99.90;;;;;;5035976;28;20390;-71
2022/11/16 09:40:52;;;;;;;1.73;0.80;;;14.80;99.90;;;;;;5035675;28;20881;-71
2022/11/16 09:43:39;;;;;;;1.53;1.00;;;14.80;99.90;;;;;;5035802;28;20170;-73
2022/11/16 09:46:23;;;;;;;1.63;1.00;;;15.00;99.90;;;;;;5035568;28;20150;-72
2022/11/16 09:48:49;;;;;;;3.20;1.40;;;15.10;99.90;;;;;;5017840;28;20407;-71
2022/11/16 09:51:19;;;;;;;3.07;1.27;;;15.10;99.90;;;;;;5015744;28;20882;-72
2022/11/16 09:53:57;;;;;;;2.00;1.30;;;15.20;99.90;;;;;;5015371;28;20410;-72
2022/11/16 09:56:25;;;;;;;1.73;1.07;;;15.30;99.90;;;;;;5014125;28;20439;-71
2022/11/16 09:59:18;;;;;;;2.10;1.40;;;15.30;99.90;;;;;;5015294;28;20412;-71
2022/11/16 10:01:58;;;;;;;1.23;1.00;;;15.40;99.90;;;;;;5014983;28;20433;-71
2022/11/16 10:04:37;;;;;;;3.80;1.27;;;15.30;99.90;;;;;;5014824;28;20514;-71
2022/11/16 10:07:14;;;;;;;1.30;0.83;;;15.30;99.90;;;;;;5015530;28;20470;-72
2022/11/16 10:09:41;;;;;;;2.00;1.40;;;15.40;99.90;;;;;;5015207;28;20381;-71
2022/11/16 10:12:56;;;;;;;1.83;1.20;;;15.60;99.90;;;;;;5015289;28;20486;-71
2022/11/16 10:15:27;;;;;;;2.93;1.33;;;15.50;99.90;;;;;;4999388;28;20805;-72
2022/11/16 10:18:15;;;;;;;3.20;1.60;;;15.50;99.90;;;;;;5013980;28;20425;-72
2022/11/16 10:21:07;;;;;;;2.87;1.23;;;15.40;99.90;;;;;;5015280;28;20500;-72
2022/11/16 10:23:53;;;;;;;1.30;1.00;;;15.30;99.90;;;;;;5014606;28;20485;-70
2022/11/16 10:26:26;;;;;;;1.70;1.10;;;15.10;99.90;;;;;;5014756;28;20394;-72
2022/11/16 10:29:18;;;;;;;1.23;0.90;;;15.00;99.90;;;;;;5015546;28;20402;-74
2022/11/16 10:32:10;;;;;;;1.57;0.70;;;14.90;99.90;;;;;;5011485;28;20454;-71
2022/11/16 10:34:50;;;;;;;1.67;1.20;;;15.10;99.90;;;;;;5017817;28;20425;-71
2022/11/16 10:37:15;;;;;;;2.43;1.20;;;15.30;99.90;;;;;;5034792;28;20816;-72
2022/11/16 10:39:41;;;;;;;1.17;1.00;;;15.20;99.90;;;;;;5034564;28;20493;-72
2022/11/16 10:42:14;;;;;;;2.07;1.40;;;15.10;99.90;;;;;;5034156;28;20214;-71
2022/11/16 10:44:44;;;;;;;2.27;1.30;;;15.50;99.90;;;;;;5034422;28;20943;-71
2022/11/16 10:47:18;;;;;;;2.33;1.30;;;16.50;99.90;;;;;;5029052;28;20908;-72
2022/11/16 10:49:59;;;;;;;2.80;1.30;;;18.00;99.90;;;;;;5014780;28;20399;-72
2022/11/16 10:52:25;;;;;;;1.30;1.00;;;19.20;99.90;;;;;;5014254;28;20403;-73
2022/11/16 10:54:51;;;;;;;2.27;0.80;;;20.50;99.90;;;;;;5013994;28;20501;-73
2022/11/16 10:57:18;;;;;;;1.30;0.90;;;21.60;99.90;;;;;;5014351;28;20192;-72
2022/11/16 10:59:47;;;;;;;1.67;1.10;;;23.20;99.90;;;;;;5014595;28;20399;-73
2022/11/16 11:02:35;;;;;;;2.40;1.17;;;24.20;98.10;;;;;;5013763;28;20517;-71
2022/11/16 11:05:12;;;;;;;1.87;0.90;;;24.40;95.70;;;;;;5014143;28;20427;-72
2022/11/16 11:07:38;;;;;;;1.47;1.10;;;24.30;94.60;;;;;;5014259;28;20461;-72
2022/11/16 11:10:25;;;;;;;2.43;0.97;;;24.10;95.50;;;;;;5013964;28;20415;-72
2022/11/16 11:13:10;;;;;;;1.53;0.97;;;22.90;95.60;;;;;;5013674;28;20458;-73
2022/11/16 11:15:41;;;;;;;1.37;0.80;;;22.90;95.30;;;;;;5014128;28;20526;-71
2022/11/16 11:18:14;;;;;;;2.63;1.00;;;21.50;96.90;;;;;;5011276;28;20502;-72
2022/11/16 11:20:43;;;;;;;1.60;0.93;;;22.30;96.50;;;;;;5013683;28;20957;-73
2022/11/16 11:23:22;;;;;;;1.97;0.90;;;22.50;96.30;;;;;;5013459;28;20920;-72
2022/11/16 11:25:50;;;;;;;2.43;1.03;;;22.60;96.50;;;;;;5013711;28;20443;-72
2022/11/16 11:28:30;;;;;;;1.67;1.00;;;21.80;96.20;;;;;;5013654;28;20435;-72
2022/11/16 11:31:03;;;;;;;1.53;0.97;;;20.50;99.20;;;;;;5013572;28;20409;-72
2022/11/16 11:33:33;;;;;;;1.20;0.90;;;19.40;99.90;;;;;;5015785;28;20422;-72
2022/11/16 11:36:01;;;;;;;1.17;1.00;;;18.30;99.90;;;;;;5014358;28;20466;-73
2022/11/16 11:38:27;;;;;;;2.80;1.53;;;17.60;99.90;;;;;;5014590;28;20406;-71
2022/11/16 11:40:58;;;;;;;3.20;1.00;;;17.30;99.90;;;;;;5033456;28;20815;-72
2022/11/16 11:43:25;;;;;;;2.20;1.13;;;17.20;99.90;;;;;;5033472;28;20173;-72
2022/11/16 11:46:04;;;;;;;4.07;1.30;;;17.20;99.90;;;;;;5032886;28;20429;-73
2022/11/16 11:48:41;;;;;;;2.40;1.10;;;17.00;99.90;;;;;;5017937;28;20901;-72
2022/11/16 11:51:19;;;;;;;3.30;1.60;;;16.70;99.90;;;;;;5012418;28;20434;-71
2022/11/16 11:54:06;;;;;;;2.23;0.90;;;16.70;99.90;;;;;;5013548;28;20438;-71
2022/11/16 11:56:33;;;;;;;2.10;1.00;;;16.70;99.90;;;;;;5013292;28;20462;-72
2022/11/16 11:58:59;;;;;;;2.97;1.53;;;16.50;99.90;;;;;;5013620;28;20415;-72
2022/11/16 12:01:54;;;;;;;1.50;1.13;;;16.50;99.90;;;;;;5013388;28;20996;-73
2022/11/16 12:04:29;;;;;;;4.73;1.50;;;16.70;99.90;;;;;;5012924;28;20423;-72
2022/11/16 12:07:15;;;;;;;2.33;1.27;;;16.90;99.90;;;;;;5013375;28;20391;-72
2022/11/16 12:09:51;;;;;;;3.63;1.03;;;16.80;99.90;;;;;;5013115;28;20426;-72
2022/11/16 12:12:22;;;;;;;2.13;1.00;;;16.80;99.90;;;;;;5013408;28;20395;-71
2022/11/16 12:15:06;;;;;;;2.97;1.10;;;17.20;99.90;;;;;;5013118;28;20782;-72
2022/11/16 12:17:40;;;;;;;6.03;1.87;;;17.60;99.90;;;;;;5014291;28;20419;-73
2022/11/16 12:20:18;;;;;;;4.13;1.20;;;18.40;99.90;;;;;;5013002;28;20442;-72
2022/11/16 12:23:26;;;;;;;2.13;1.00;;;20.10;99.90;;;;;;5013186;28;20406;-72
2022/11/16 12:26:08;;;;;;;2.63;1.00;;;22.00;98.10;;;;;;5013231;28;20419;-72
2022/11/16 12:28:42;;;;;;;1.63;0.90;;;24.00;93.80;;;;;;5025115;28;20408;-71
2022/11/16 12:31:41;;;;;;;5.80;1.43;;;25.30;89.80;;;;;;5032616;28;20938;-73
2022/11/16 12:34:17;;;;;;;1.17;0.90;;;24.70;85.60;;;;;;5032439;28;20429;-71
2022/11/16 12:36:54;;;;;;;1.20;0.90;;;23.30;87.30;;;;;;5036236;28;20401;-72
2022/11/16 12:39:26;;;;;;;1.50;0.93;;;21.80;90.30;;;;;;5037019;28;20416;-72
2022/11/16 12:42:12;;;;;;;3.00;0.77;;;20.20;92.10;;;;;;5036739;28;20536;-72
2022/11/16 12:44:43;;;;;;;2.40;1.00;;;19.30;93.90;;;;;;5036764;28;20944;-71
2022/11/16 12:47:28;;;;;;;4.90;1.03;;;18.60;95.20;;;;;;5034484;28;20433;-72
2022/11/16 12:50:34;;;;;;;2.50;0.90;;;18.00;96.10;;;;;;5017078;28;20482;-73
2022/11/16 12:53:26;;;;;;;5.10;1.50;;;17.70;97.10;;;;;;5016533;28;20908;-72
2022/11/16 12:55:55;;;;;;;2.93;1.07;;;17.30;98.70;;;;;;5016376;28;20454;-70
2022/11/16 12:58:38;;;;;;;3.07;1.00;;;17.00;98.30;;;;;;5016591;28;20414;-72
2022/11/16 13:01:06;;;;;;;3.00;0.80;;;16.80;98.90;;;;;;5028973;28;20441;-71
2022/11/16 13:03:42;;;;;;;3.27;1.00;;;17.10;99.30;;;;;;5031651;28;20402;-72
2022/11/16 13:06:19;;;;;;;2.00;1.13;;;17.00;98.80;;;;;;5034549;28;20928;-71
2022/11/16 13:09:09;;;;;;;2.27;1.20;;;17.00;99.00;;;;;;5030752;28;20444;-73
2022/11/16 13:11:39;;;;;;;2.40;1.20;;;17.00;99.90;;;;;;5018179;28;20399;-71
2022/11/16 13:14:11;;;;;;;2.80;0.77;;;17.00;99.30;;;;;;5017456;28;20430;-72
2022/11/16 13:16:37;;;;;;;1.67;0.70;;;17.10;99.30;;;;;;5016546;28;20438;-69
2022/11/16 13:19:05;;;;;;;1.77;0.83;;;17.00;98.80;;;;;;5014740;28;20951;-72
2022/11/16 13:21:56;;;;;;;1.57;0.90;;;16.70;98.60;;;;;;5016125;28;20203;-71
2022/11/16 13:24:47;;;;;;;2.20;1.07;;;16.30;99.50;;;;;;5016239;28;20427;-72
2022/11/16 13:27:26;;;;;;;3.30;2.20;;;15.90;99.90;;;;;;5017431;28;20387;-72
2022/11/16 13:30:20;;;;;;;4.10;2.30;;;15.90;99.90;;;;;;5035320;28;20475;-71
2022/11/16 13:33:00;;;;;;;1.83;1.07;;;15.90;99.90;;;;;;5034866;28;20402;-70
2022/11/16 13:35:26;;;;;;;4.23;1.50;;;15.80;99.90;;;;;;5035929;28;20780;-73
2022/11/16 13:37:52;;;;;;;1.10;0.83;;;15.90;99.90;;;;;;5035550;28;20412;-71
2022/11/16 13:40:21;;;;;;;2.33;1.07;;;15.90;99.90;;;;;;5034011;28;20460;-72
2022/11/16 13:43:04;;;;;;;0.90;0.70;;;15.80;99.90;;;;;;5035596;28;20630;-72
2022/11/16 13:45:36;;;;;;;4.63;1.40;;;16.00;99.90;;;;;;5034888;28;20425;-72
2022/11/16 13:48:14;;;;;;;3.10;2.07;;;16.10;99.90;;;;;;5026252;28;20417;-71